createdAt,value
2018-07-17T00:01:53.566Z,38.40
2018-07-17T00:04:21.907Z,38.50
2018-07-17T00:06:50.251Z,39.10
2018-07-17T00:09:18.579Z,38.60
2018-07-17T00:11:46.946Z,39.20
2018-07-17T00:14:15.335Z,38.60
2018-07-17T00:16:43.701Z,38.80
2018-07-17T00:19:12.023Z,38.70
2018-07-17T00:21:40.507Z,38.70
2018-07-17T00:24:08.811Z,38.80
2018-07-17T00:26:37.165Z,38.80
2018-07-17T00:29:05.529Z,38.90
2018-07-17T00:31:33.967Z,39.00
2018-07-17T00:34:02.322Z,38.90
2018-07-17T00:36:31.951Z,39.00
2018-07-17T00:39:00.463Z,39.10
2018-07-17T00:41:28.871Z,39.80
2018-07-17T00:43:57.172Z,39.30
2018-07-17T00:46:25.502Z,39.20
2018-07-17T00:48:53.844Z,39.20
2018-07-17T00:51:22.234Z,39.30
2018-07-17T00:53:50.558Z,39.30
2018-07-17T00:56:18.906Z,39.40
2018-07-17T00:58:47.221Z,39.40
2018-07-17T01:01:21.679Z,39.50
2018-07-17T01:03:55.318Z,39.50
2018-07-17T01:06:29.169Z,39.50
2018-07-17T01:09:02.980Z,39.70
2018-07-17T01:11:36.707Z,39.70
2018-07-17T01:14:12.230Z,39.80
2018-07-17T01:16:40.540Z,39.80
2018-07-17T01:19:08.902Z,39.70
2018-07-17T01:21:37.280Z,39.80
2018-07-17T01:24:05.736Z,39.80
2018-07-17T01:26:34.214Z,39.90
2018-07-17T01:29:02.546Z,39.90
2018-07-17T01:31:30.820Z,40.00
2018-07-17T01:33:59.128Z,40.00
2018-07-17T01:36:27.474Z,39.90
2018-07-17T01:38:55.763Z,40.10
2018-07-17T01:41:24.044Z,40.20
2018-07-17T01:43:52.792Z,40.30
2018-07-17T01:46:21.112Z,40.80
2018-07-17T01:48:49.465Z,40.40
2018-07-17T01:51:17.783Z,40.50
2018-07-17T01:53:46.232Z,40.60
2018-07-17T01:56:14.530Z,40.60
2018-07-17T01:58:42.823Z,40.60
2018-07-17T02:01:11.188Z,40.70
2018-07-17T02:03:39.501Z,40.70
2018-07-17T02:08:35.964Z,40.90
2018-07-17T02:11:04.267Z,41.00
2018-07-17T02:13:32.608Z,41.00
2018-07-17T02:16:00.892Z,41.10
2018-07-17T02:18:29.201Z,41.10
2018-07-17T02:20:57.480Z,41.10
2018-07-17T02:23:26.292Z,41.20
2018-07-17T02:25:54.562Z,41.20
2018-07-17T02:28:22.865Z,41.40
2018-07-17T02:30:51.387Z,41.30
2018-07-17T02:33:19.693Z,41.40
2018-07-17T02:35:48.089Z,41.50
2018-07-17T02:38:16.383Z,41.60
2018-07-17T02:40:44.654Z,41.60
2018-07-17T02:43:13.018Z,41.70
2018-07-17T02:45:41.380Z,41.70
2018-07-17T02:48:09.703Z,41.80
2018-07-17T02:50:44.328Z,41.80
2018-07-17T02:53:12.641Z,41.90
2018-07-17T02:55:40.975Z,42.00
2018-07-17T02:58:09.258Z,42.20
2018-07-17T03:00:37.627Z,42.20
2018-07-17T03:03:06.028Z,42.40
2018-07-17T03:05:34.702Z,42.40
2018-07-17T03:08:03.299Z,42.60
2018-07-17T03:10:31.707Z,42.70
2018-07-17T03:13:00.102Z,42.60
2018-07-17T03:15:28.430Z,42.70
2018-07-17T03:17:56.836Z,42.70
2018-07-17T03:20:25.210Z,42.80
2018-07-17T03:22:53.608Z,43.00
2018-07-17T03:25:21.891Z,42.90
2018-07-17T03:27:50.400Z,42.90
2018-07-17T03:30:18.731Z,43.00
2018-07-17T03:32:47.100Z,42.60
2018-07-17T03:35:15.386Z,42.80
2018-07-17T03:37:43.644Z,42.80
2018-07-17T03:40:12.007Z,43.40
2018-07-17T03:42:40.381Z,42.80
2018-07-17T03:45:08.689Z,43.00
2018-07-17T03:47:37.084Z,43.20
2018-07-17T03:50:05.455Z,43.00
2018-07-17T03:52:33.783Z,42.90
2018-07-17T03:55:02.117Z,42.90
2018-07-17T03:57:30.444Z,43.20
2018-07-17T03:59:58.976Z,43.40
2018-07-17T04:02:27.247Z,43.20
2018-07-17T04:04:55.602Z,43.30
2018-07-17T04:07:23.995Z,43.30
2018-07-17T04:09:52.371Z,43.30
2018-07-17T04:12:20.631Z,43.40
2018-07-17T04:14:48.926Z,43.30
2018-07-17T04:17:17.340Z,43.40
2018-07-17T04:19:45.643Z,43.50
2018-07-17T04:22:13.972Z,43.60
2018-07-17T04:24:42.298Z,43.60
2018-07-17T04:27:10.672Z,43.50
2018-07-17T04:29:38.991Z,43.50
2018-07-17T04:32:07.329Z,43.50
2018-07-17T04:34:35.857Z,43.60
2018-07-17T04:37:04.224Z,43.40
2018-07-17T04:39:32.573Z,43.50
2018-07-17T04:42:01.086Z,43.50
2018-07-17T04:44:29.421Z,44.00
2018-07-17T04:46:57.934Z,43.40
2018-07-17T04:49:26.262Z,43.50
2018-07-17T04:51:54.578Z,43.30
2018-07-17T04:54:22.927Z,43.40
2018-07-17T04:56:52.206Z,43.40
2018-07-17T04:59:20.817Z,43.30
2018-07-17T05:01:49.143Z,43.60
2018-07-17T05:04:17.493Z,43.60
2018-07-17T05:06:45.849Z,43.60
2018-07-17T05:09:14.149Z,43.60
2018-07-17T05:11:42.407Z,43.70
2018-07-17T05:14:10.741Z,43.70
2018-07-17T05:16:39.215Z,43.60
2018-07-17T05:19:07.627Z,43.50
2018-07-17T05:21:36.171Z,43.60
2018-07-17T05:24:04.631Z,43.60
2018-07-17T05:26:33.028Z,43.80
2018-07-17T05:29:01.597Z,43.90
2018-07-17T05:31:29.927Z,43.70
2018-07-17T05:33:59.221Z,44.40
2018-07-17T05:36:27.623Z,43.90
2018-07-17T05:38:55.967Z,43.90
2018-07-17T05:41:24.295Z,44.40
2018-07-17T05:43:52.594Z,43.90
2018-07-17T05:46:21.064Z,43.90
2018-07-17T05:48:49.516Z,44.00
2018-07-17T05:51:18.107Z,44.00
2018-07-17T05:53:46.483Z,44.00
2018-07-17T05:56:14.771Z,44.00
2018-07-17T05:58:43.127Z,43.80
2018-07-17T06:03:39.648Z,43.60
2018-07-17T06:06:08.271Z,43.80
2018-07-17T06:08:36.635Z,43.60
2018-07-17T06:11:05.083Z,43.50
2018-07-17T06:13:33.676Z,43.50
2018-07-17T06:18:30.201Z,43.50
2018-07-17T06:20:58.559Z,43.50
2018-07-17T06:23:27.017Z,43.60
2018-07-17T06:25:55.348Z,43.70
2018-07-17T06:28:23.617Z,43.70
2018-07-17T06:30:51.891Z,43.70
2018-07-17T06:33:20.267Z,43.70
2018-07-17T06:35:48.600Z,43.70
2018-07-17T06:38:16.885Z,43.50
2018-07-17T06:43:13.291Z,43.50
2018-07-17T06:45:41.706Z,43.40
2018-07-17T06:48:10.058Z,43.40
2018-07-17T06:50:38.466Z,43.40
2018-07-17T06:53:08.299Z,43.30
2018-07-17T06:55:36.703Z,43.40
2018-07-17T06:58:05.302Z,43.40
2018-07-17T07:00:33.734Z,43.50
2018-07-17T07:03:02.323Z,43.40
2018-07-17T07:05:30.688Z,43.30
2018-07-17T07:07:59.319Z,43.40
2018-07-17T07:10:27.935Z,43.20
2018-07-17T07:12:56.237Z,43.20
2018-07-17T07:15:24.589Z,43.40
2018-07-17T07:17:52.921Z,43.10
2018-07-17T07:20:21.311Z,43.00
2018-07-17T07:22:49.581Z,42.70
2018-07-17T07:25:17.883Z,42.60
2018-07-17T07:27:46.205Z,43.10
2018-07-17T07:30:14.540Z,42.60
2018-07-17T07:32:42.870Z,42.40
2018-07-17T07:35:11.157Z,41.90
2018-07-17T07:37:39.540Z,42.10
2018-07-17T07:40:07.899Z,42.10
2018-07-17T07:42:36.236Z,42.00
2018-07-17T07:45:04.651Z,41.80
2018-07-17T07:47:33.045Z,42.10
2018-07-17T07:50:01.420Z,42.20
2018-07-17T07:52:29.815Z,42.10
2018-07-17T07:54:58.086Z,42.10
2018-07-17T07:57:26.375Z,41.90
2018-07-17T07:59:54.726Z,41.80
2018-07-17T08:02:23.034Z,41.70
2018-07-17T08:04:51.352Z,41.50
2018-07-17T08:07:19.962Z,41.60
2018-07-17T08:09:48.210Z,41.00
2018-07-17T08:12:16.759Z,40.80
2018-07-17T08:14:45.075Z,40.60
2018-07-17T08:17:13.395Z,40.50
2018-07-17T08:19:41.824Z,40.50
2018-07-17T08:22:10.127Z,40.40
2018-07-17T08:24:38.591Z,40.10
2018-07-17T08:27:07.366Z,40.00
2018-07-17T08:29:35.635Z,39.80
2018-07-17T08:32:04.208Z,39.60
2018-07-17T08:34:32.983Z,39.40
2018-07-17T08:37:01.399Z,39.30
2018-07-17T08:39:29.795Z,39.10
2018-07-17T08:41:58.114Z,38.90
2018-07-17T08:44:27.009Z,38.90
2018-07-17T08:46:55.465Z,38.60
2018-07-17T08:49:24.008Z,38.50
2018-07-17T08:51:52.340Z,38.30
2018-07-17T08:54:20.761Z,38.20
2018-07-17T08:56:49.146Z,37.80
2018-07-17T08:59:17.520Z,37.80
2018-07-17T09:01:45.898Z,37.60
2018-07-17T09:04:14.279Z,37.40
2018-07-17T09:06:43.016Z,37.40
2018-07-17T09:09:11.663Z,37.70
2018-07-17T09:11:40.099Z,37.00
2018-07-17T09:14:08.378Z,36.70
2018-07-17T09:16:36.756Z,36.40
2018-07-17T09:19:05.319Z,36.20
2018-07-17T09:21:33.687Z,35.90
2018-07-17T09:24:02.166Z,35.60
2018-07-17T09:26:30.515Z,35.40
2018-07-17T09:28:59.064Z,35.20
2018-07-17T09:31:27.784Z,35.00
2018-07-17T09:33:56.092Z,34.70
2018-07-17T09:36:24.469Z,34.30
2018-07-17T09:38:52.749Z,33.90
2018-07-17T09:41:21.044Z,33.30
2018-07-17T09:43:49.396Z,32.90
2018-07-17T09:48:46.199Z,32.20
2018-07-17T09:51:14.484Z,31.40
2018-07-17T09:53:42.879Z,31.20
2018-07-17T09:56:11.465Z,30.90
2018-07-17T09:58:39.793Z,31.30
2018-07-17T10:01:13.543Z,30.20
2018-07-17T10:03:41.843Z,29.50
2018-07-17T10:06:10.202Z,29.60
2018-07-17T10:08:38.492Z,29.00
2018-07-17T10:11:06.807Z,29.10
2018-07-17T10:13:35.123Z,28.60
2018-07-17T10:16:03.537Z,28.40
2018-07-17T10:18:31.906Z,28.10
2018-07-17T10:21:00.287Z,27.90
2018-07-17T10:23:28.911Z,27.80
2018-07-17T10:25:57.223Z,27.60
2018-07-17T10:28:25.561Z,27.30
2018-07-17T10:30:53.893Z,27.20
2018-07-17T10:33:22.183Z,26.90
2018-07-17T10:35:50.510Z,26.80
2018-07-17T10:38:18.971Z,26.60
2018-07-17T10:40:47.329Z,26.30
2018-07-17T10:43:15.629Z,26.10
2018-07-17T10:45:43.995Z,26.00
2018-07-17T10:48:12.336Z,25.80
2018-07-17T10:50:40.648Z,25.50
2018-07-17T10:53:09.348Z,25.50
2018-07-17T10:55:37.805Z,24.80
2018-07-17T10:58:06.132Z,24.70
2018-07-17T11:00:34.451Z,24.60
2018-07-17T11:03:02.861Z,24.40
2018-07-17T11:05:31.164Z,23.60
2018-07-17T11:07:59.537Z,24.10
2018-07-17T11:10:27.854Z,23.70
2018-07-17T11:12:56.156Z,23.30
2018-07-17T11:15:24.490Z,23.40
2018-07-17T11:17:52.852Z,23.40
2018-07-17T11:20:21.242Z,22.80
2018-07-17T11:22:49.660Z,23.20
2018-07-17T11:25:17.956Z,23.00
2018-07-17T11:27:46.296Z,22.90
2018-07-17T11:30:14.666Z,22.60
2018-07-17T11:32:42.952Z,22.30
2018-07-17T11:35:11.307Z,22.30
2018-07-17T11:37:39.647Z,22.20
2018-07-17T11:40:08.082Z,21.90
2018-07-17T11:42:36.467Z,22.00
2018-07-17T11:45:05.192Z,21.90
2018-07-17T11:47:33.646Z,21.60
2018-07-17T11:52:30.275Z,21.40
2018-07-17T11:54:58.660Z,21.60
2018-07-17T11:57:26.975Z,21.10
2018-07-17T11:59:55.299Z,21.10
2018-07-17T12:02:23.687Z,21.10
2018-07-17T12:04:52.216Z,21.00
2018-07-17T12:07:20.584Z,21.20
2018-07-17T12:09:48.939Z,20.90
2018-07-17T12:14:45.428Z,20.90
2018-07-17T12:17:13.781Z,20.80
2018-07-17T12:19:42.284Z,20.10
2018-07-17T12:22:10.547Z,20.70
2018-07-17T12:24:39.040Z,20.50
2018-07-17T12:27:07.444Z,20.50
2018-07-17T12:29:35.819Z,20.30
2018-07-17T12:32:04.152Z,20.20
2018-07-17T12:34:32.556Z,20.10
2018-07-17T12:37:00.986Z,20.10
2018-07-17T12:39:29.359Z,19.60
2018-07-17T12:41:57.679Z,19.90
2018-07-17T12:44:26.179Z,20.10
2018-07-17T12:46:54.581Z,20.20
2018-07-17T12:49:22.929Z,19.60
2018-07-17T12:54:19.283Z,19.70
2018-07-17T12:56:47.620Z,19.10
2018-07-17T12:59:15.972Z,18.60
2018-07-17T13:01:44.255Z,19.50
2018-07-17T13:04:12.574Z,19.10
2018-07-17T13:06:40.844Z,19.40
2018-07-17T13:09:10.006Z,19.90
2018-07-17T13:11:38.254Z,19.50
2018-07-17T13:14:06.597Z,19.60
2018-07-17T13:16:34.954Z,20.60
2018-07-17T13:19:03.367Z,20.60
2018-07-17T13:21:31.690Z,21.00
2018-07-17T13:24:00.061Z,21.50
2018-07-17T13:26:28.363Z,21.50
2018-07-17T13:28:56.709Z,22.10
2018-07-17T13:31:25.037Z,22.30
2018-07-17T13:33:53.388Z,22.80
2018-07-17T13:36:21.682Z,23.00
2018-07-17T13:38:50.100Z,23.20
2018-07-17T13:41:18.525Z,23.50
2018-07-17T13:43:47.032Z,23.50
2018-07-17T13:46:15.475Z,23.70
2018-07-17T13:48:43.806Z,22.90
2018-07-17T13:51:12.199Z,22.70
2018-07-17T13:53:40.717Z,22.50
2018-07-17T13:58:37.110Z,22.20
2018-07-17T14:01:05.626Z,22.00
2018-07-17T14:03:33.956Z,21.70
2018-07-17T14:06:02.489Z,21.50
2018-07-17T14:08:30.885Z,22.10
2018-07-17T14:10:59.299Z,22.50
2018-07-17T14:13:27.659Z,22.20
2018-07-17T14:15:55.987Z,21.80
2018-07-17T14:18:24.325Z,21.50
2018-07-17T14:20:52.672Z,21.40
2018-07-17T14:23:21.119Z,19.90
2018-07-17T14:25:49.603Z,20.50
2018-07-17T14:28:17.914Z,20.40
2018-07-17T14:30:46.609Z,20.00
2018-07-17T14:33:14.976Z,20.00
2018-07-17T14:35:43.324Z,19.20
2018-07-17T14:38:11.601Z,18.80
2018-07-17T14:40:39.926Z,18.60
2018-07-17T14:43:08.397Z,19.50
2018-07-17T14:45:36.722Z,19.90
2018-07-17T14:48:05.274Z,20.10
2018-07-17T14:50:33.783Z,20.20
2018-07-17T14:53:02.208Z,20.40
2018-07-17T14:55:30.591Z,20.40
2018-07-17T14:57:58.875Z,20.60
2018-07-17T15:00:27.226Z,21.20
2018-07-17T15:02:55.537Z,20.10
2018-07-17T15:05:23.860Z,20.80
2018-07-17T15:07:52.163Z,20.20
2018-07-17T15:10:20.479Z,20.90
2018-07-17T15:12:48.816Z,21.20
2018-07-17T15:15:17.163Z,21.30
2018-07-17T15:17:45.476Z,21.20
2018-07-17T15:20:13.779Z,20.60
2018-07-17T15:22:42.071Z,20.90
2018-07-17T15:25:10.433Z,21.00
2018-07-17T15:27:38.758Z,21.50
2018-07-17T15:30:07.079Z,22.20
2018-07-17T15:32:35.359Z,22.70
2018-07-17T15:35:03.911Z,22.90
2018-07-17T15:37:32.257Z,23.30
2018-07-17T15:40:00.595Z,23.40
2018-07-17T15:42:29.431Z,23.50
2018-07-17T15:44:57.773Z,23.30
2018-07-17T15:47:26.056Z,23.90
2018-07-17T15:49:54.391Z,23.80
2018-07-17T15:52:22.835Z,23.90
2018-07-17T15:54:51.191Z,24.10
2018-07-17T15:57:19.646Z,24.50
2018-07-17T15:59:47.944Z,24.40
2018-07-17T16:02:16.211Z,24.50
2018-07-17T16:04:44.618Z,24.20
2018-07-17T16:07:13.044Z,24.50
2018-07-17T16:12:09.761Z,25.00
2018-07-17T16:14:38.144Z,24.70
2018-07-17T16:17:06.770Z,25.20
2018-07-17T16:19:36.467Z,24.70
2018-07-17T16:22:04.809Z,24.90
2018-07-17T16:24:33.269Z,25.10
2018-07-17T16:27:01.688Z,25.00
2018-07-17T16:29:30.256Z,25.10
2018-07-17T16:31:58.747Z,24.90
2018-07-17T16:34:27.189Z,25.30
2018-07-17T16:36:55.576Z,25.20
2018-07-17T16:39:24.299Z,25.40
2018-07-17T16:41:53.531Z,25.40
2018-07-17T16:44:22.423Z,25.10
2018-07-17T16:46:51.176Z,25.50
2018-07-17T16:49:19.494Z,25.20
2018-07-17T16:51:47.826Z,25.50
2018-07-17T16:54:16.542Z,25.80
2018-07-17T16:56:44.948Z,25.50
2018-07-17T16:59:14.498Z,25.70
2018-07-17T17:01:44.155Z,25.90
2018-07-17T17:04:12.632Z,25.90
2018-07-17T17:06:41.260Z,25.90
2018-07-17T17:09:12.040Z,25.60
2018-07-17T17:11:41.079Z,25.80
2018-07-17T17:14:09.642Z,26.10
2018-07-17T17:16:39.752Z,26.20
2018-07-17T17:19:08.157Z,25.80
2018-07-17T17:21:37.081Z,26.10
2018-07-17T17:24:06.456Z,26.00
2018-07-17T17:26:34.986Z,26.10
2018-07-17T17:29:03.751Z,26.10
2018-07-17T17:34:00.271Z,24.80
2018-07-17T17:36:28.758Z,25.50
2018-07-17T17:38:57.041Z,25.50
2018-07-17T17:41:25.439Z,24.90
2018-07-17T17:43:53.850Z,25.20
2018-07-17T17:46:22.153Z,24.50
2018-07-17T17:48:50.783Z,24.60
2018-07-17T17:51:19.321Z,24.70
2018-07-17T17:53:47.670Z,24.40
2018-07-17T17:56:16.308Z,24.60
2018-07-17T17:58:44.667Z,24.70
2018-07-17T18:01:13.037Z,24.30
2018-07-17T18:03:41.650Z,24.40
2018-07-17T18:06:10.080Z,24.10
2018-07-17T18:08:38.479Z,24.60
2018-07-17T18:11:07.098Z,24.30
2018-07-17T18:13:35.679Z,24.40
2018-07-17T18:16:04.347Z,24.30
2018-07-17T18:18:32.829Z,25.30
2018-07-17T18:21:01.187Z,24.00
2018-07-17T18:23:29.951Z,24.30
2018-07-17T18:25:58.309Z,25.10
2018-07-17T18:28:26.998Z,24.70
2018-07-17T18:30:55.447Z,24.70
2018-07-17T18:33:23.781Z,24.90
2018-07-17T18:35:52.149Z,25.10
2018-07-17T18:38:20.583Z,25.20
2018-07-17T18:40:49.732Z,25.30
2018-07-17T18:43:18.064Z,24.70
2018-07-17T18:45:46.471Z,24.80
2018-07-17T18:48:14.986Z,24.70
2018-07-17T18:50:43.283Z,25.70
2018-07-17T18:53:11.664Z,25.10
2018-07-17T19:00:36.311Z,25.10
2018-07-17T19:03:04.871Z,24.80
2018-07-17T19:05:33.168Z,24.80
2018-07-17T19:08:01.640Z,25.50
2018-07-17T19:10:30.016Z,25.10
2018-07-17T19:12:58.360Z,25.70
2018-07-17T19:15:26.715Z,25.80
2018-07-17T19:17:55.181Z,26.00
2018-07-17T19:20:23.575Z,26.20
2018-07-17T19:22:51.853Z,26.20
2018-07-17T19:25:20.248Z,26.10
2018-07-17T19:27:48.603Z,26.40
2018-07-17T19:30:17.091Z,26.30
2018-07-17T19:32:45.508Z,26.40
2018-07-17T19:35:13.855Z,26.40
2018-07-17T19:37:42.134Z,26.70
2018-07-17T19:40:10.452Z,26.60
2018-07-17T19:42:38.989Z,26.50
2018-07-17T19:45:07.338Z,26.50
2018-07-17T19:47:35.748Z,26.40
2018-07-17T19:50:04.731Z,26.70
2018-07-17T19:52:33.247Z,26.60
2018-07-17T19:55:01.552Z,26.70
2018-07-17T19:57:31.059Z,27.00
2018-07-17T19:59:59.773Z,27.10
2018-07-17T20:02:28.107Z,26.90
2018-07-17T20:04:56.516Z,27.00
2018-07-17T20:07:24.816Z,27.10
2018-07-17T20:09:53.171Z,27.20
2018-07-17T20:12:21.466Z,27.50
2018-07-17T20:14:49.843Z,27.60
2018-07-17T20:17:18.596Z,27.80
2018-07-17T20:19:46.888Z,27.90
2018-07-17T20:22:16.563Z,28.10
2018-07-17T20:24:44.883Z,28.10
2018-07-17T20:27:13.733Z,28.20
2018-07-17T20:29:42.026Z,28.20
2018-07-17T20:32:10.828Z,28.40
2018-07-17T20:34:39.336Z,28.40
2018-07-17T20:37:07.663Z,28.20
2018-07-17T20:39:35.986Z,28.30
2018-07-17T20:42:10.894Z,28.40
2018-07-17T20:44:40.012Z,28.60
2018-07-17T20:47:08.367Z,28.60
2018-07-17T20:49:36.650Z,28.80
2018-07-17T20:52:05.148Z,28.90
2018-07-17T20:54:33.690Z,29.00
2018-07-17T20:57:02.060Z,29.10
2018-07-17T20:59:30.355Z,29.20
2018-07-17T21:01:58.734Z,29.30
2018-07-17T21:04:27.089Z,29.30
2018-07-17T21:06:55.399Z,29.40
2018-07-17T21:09:23.715Z,29.50
2018-07-17T21:11:52.006Z,29.60
2018-07-17T21:14:20.340Z,29.70
2018-07-17T21:16:48.763Z,29.70
2018-07-17T21:19:17.160Z,29.80
2018-07-17T21:21:45.499Z,29.90
2018-07-17T21:24:13.853Z,29.90
2018-07-17T21:26:42.367Z,30.00
2018-07-17T21:29:10.731Z,30.00
2018-07-17T21:31:39.057Z,29.70
2018-07-17T21:34:07.350Z,30.00
2018-07-17T21:36:35.659Z,30.80
2018-07-17T21:39:05.863Z,30.90
2018-07-17T21:41:34.155Z,30.30
2018-07-17T21:44:02.584Z,30.40
2018-07-17T21:46:30.927Z,30.40
2018-07-17T21:48:59.438Z,30.60
2018-07-17T21:51:27.833Z,30.60
2018-07-17T21:53:56.726Z,30.30
2018-07-17T21:56:25.241Z,30.90
2018-07-17T22:01:22.382Z,30.80
2018-07-17T22:03:50.676Z,30.70
2018-07-17T22:06:19.715Z,30.80
2018-07-17T22:08:48.033Z,30.80
2018-07-17T22:11:16.356Z,30.90
2018-07-17T22:13:44.713Z,31.00
2018-07-17T22:16:14.198Z,31.00
2018-07-17T22:18:46.531Z,31.00
2018-07-17T22:21:15.400Z,31.20
2018-07-17T22:23:43.820Z,31.20
2018-07-17T22:26:12.220Z,31.30
2018-07-17T22:28:40.632Z,31.60
2018-07-17T22:31:09.096Z,31.60
2018-07-17T22:33:38.009Z,31.70
2018-07-17T22:36:06.410Z,31.80
2018-07-17T22:38:34.711Z,31.90
2018-07-17T22:41:03.108Z,32.00
2018-07-17T22:43:31.420Z,32.10
2018-07-17T22:46:00.573Z,32.30
2018-07-17T22:48:28.862Z,32.20
2018-07-17T22:51:28.223Z,32.40
2018-07-17T22:53:56.514Z,32.50
2018-07-17T22:56:24.791Z,32.70
2018-07-17T22:58:53.176Z,32.90
2018-07-17T23:01:22.751Z,33.00
2018-07-17T23:03:52.216Z,32.90
2018-07-17T23:06:20.601Z,33.10
2018-07-17T23:08:48.953Z,33.20
2018-07-17T23:11:17.497Z,33.30
2018-07-17T23:13:45.906Z,33.30
2018-07-17T23:16:14.280Z,33.50
2018-07-17T23:18:42.633Z,33.40
2018-07-17T23:21:10.943Z,33.50
2018-07-17T23:23:39.564Z,33.50
2018-07-17T23:26:07.900Z,33.40
2018-07-17T23:28:36.346Z,33.70
2018-07-17T23:31:04.883Z,33.70
2018-07-17T23:33:33.179Z,33.60
2018-07-17T23:36:01.476Z,33.70
2018-07-17T23:38:29.785Z,34.00
2018-07-17T23:40:58.602Z,34.00
2018-07-17T23:43:26.900Z,34.00
2018-07-17T23:45:55.175Z,34.10
2018-07-17T23:48:23.498Z,34.30
2018-07-17T23:50:51.832Z,34.40
2018-07-17T23:53:20.148Z,34.40
2018-07-17T23:55:49.421Z,34.60
2018-07-17T23:58:17.724Z,34.50
